sensor_id;sensor_type;location;lat;lon;timestamp;pressure;altitude;pressure_sealevel;temperature;humidity
20228;BME280;12195;55.790;37.572;2023-06-24T00:01:46;99057.27;;;19.13;74.96
20228;BME280;12195;55.790;37.572;2023-06-24T00:04:29;99057.25;;;19.31;75.44
20228;BME280;12195;55.790;37.572;2023-06-24T00:07:01;99050.58;;;19.09;75.13
20228;BME280;12195;55.790;37.572;2023-06-24T00:09:44;99051.11;;;19.30;75.17
20228;BME280;12195;55.790;37.572;2023-06-24T00:12:27;99055.44;;;19.31;74.93
20228;BME280;12195;55.790;37.572;2023-06-24T00:14:59;99055.45;;;18.96;75.21
20228;BME280;12195;55.790;37.572;2023-06-24T00:17:44;99053.09;;;19.11;75.35
20228;BME280;12195;55.790;37.572;2023-06-24T00:20:19;99049.64;;;18.83;75.41
20228;BME280;12195;55.790;37.572;2023-06-24T00:23:06;99066.91;;;18.97;75.66
20228;BME280;12195;55.790;37.572;2023-06-24T00:25:46;99050.91;;;18.44;77.18
20228;BME280;12195;55.790;37.572;2023-06-24T00:28:31;99059.91;;;18.78;77.17
20228;BME280;12195;55.790;37.572;2023-06-24T00:31:05;99054.84;;;18.40;77.53
20228;BME280;12195;55.790;37.572;2023-06-24T00:33:40;99061.05;;;18.76;76.95
20228;BME280;12195;55.790;37.572;2023-06-24T00:36:24;99054.97;;;18.83;76.76
20228;BME280;12195;55.790;37.572;2023-06-24T00:38:59;99047.58;;;18.60;76.67
20228;BME280;12195;55.790;37.572;2023-06-24T00:41:49;99053.52;;;18.89;76.02
20228;BME280;12195;55.790;37.572;2023-06-24T00:44:25;99038.75;;;18.59;75.99
20228;BME280;12195;55.790;37.572;2023-06-24T00:47:10;99051.26;;;18.76;76.48
20228;BME280;12195;55.790;37.572;2023-06-24T00:49:59;99050.56;;;18.74;76.07
20228;BME280;12195;55.790;37.572;2023-06-24T00:52:35;99043.75;;;18.45;76.31
20228;BME280;12195;55.790;37.572;2023-06-24T00:55:23;99047.38;;;18.71;76.58
20228;BME280;12195;55.790;37.572;2023-06-24T00:58:13;99045.53;;;18.71;76.27
20228;BME280;12195;55.790;37.572;2023-06-24T01:00:47;99039.37;;;18.53;75.09
20228;BME280;12195;55.790;37.572;2023-06-24T01:03:35;99059.70;;;18.89;74.25
20228;BME280;12195;55.790;37.572;2023-06-24T01:06:09;99034.28;;;18.60;74.27
20228;BME280;12195;55.790;37.572;2023-06-24T01:08:53;99047.98;;;18.82;74.61
20228;BME280;12195;55.790;37.572;2023-06-24T01:11:33;99048.10;;;18.63;74.25
20228;BME280;12195;55.790;37.572;2023-06-24T01:14:14;99054.89;;;18.93;74.22
20228;BME280;12195;55.790;37.572;2023-06-24T01:17:21;99054.06;;;18.75;75.61
20228;BME280;12195;55.790;37.572;2023-06-24T01:20:16;99058.91;;;18.79;75.92
20228;BME280;12195;55.790;37.572;2023-06-24T01:26:11;99057.93;;;19.15;72.95
20228;BME280;12195;55.790;37.572;2023-06-24T01:29:07;99052.16;;;18.85;72.10
20228;BME280;12195;55.790;37.572;2023-06-24T01:31:58;99073.31;;;19.21;71.75
20228;BME280;12195;55.790;37.572;2023-06-24T01:34:50;99060.98;;;18.85;71.40
20228;BME280;12195;55.790;37.572;2023-06-24T01:37:37;99065.25;;;19.13;70.18
20228;BME280;12195;55.790;37.572;2023-06-24T01:40:26;99064.94;;;18.81;69.18
20228;BME280;12195;55.790;37.572;2023-06-24T01:43:14;99064.47;;;19.03;68.87
20228;BME280;12195;55.790;37.572;2023-06-24T01:45:52;99058.59;;;18.65;69.46
20228;BME280;12195;55.790;37.572;2023-06-24T01:48:42;99070.72;;;18.94;68.56
20228;BME280;12195;55.790;37.572;2023-06-24T01:51:21;99069.99;;;18.57;69.05
20228;BME280;12195;55.790;37.572;2023-06-24T01:54:07;99065.84;;;18.72;69.82
20228;BME280;12195;55.790;37.572;2023-06-24T01:56:52;99065.14;;;18.70;69.59
20228;BME280;12195;55.790;37.572;2023-06-24T01:59:41;99068.19;;;18.75;69.23
20228;BME280;12195;55.790;37.572;2023-06-24T02:02:31;99067.13;;;18.68;69.16
20228;BME280;12195;55.790;37.572;2023-06-24T02:05:17;99064.77;;;18.65;69.34
20228;BME280;12195;55.790;37.572;2023-06-24T02:08:08;99064.25;;;18.35;71.85
20228;BME280;12195;55.790;37.572;2023-06-24T02:10:44;99054.91;;;18.21;71.17
20228;BME280;12195;55.790;37.572;2023-06-24T02:13:32;99066.34;;;18.58;71.21
20228;BME280;12195;55.790;37.572;2023-06-24T02:16:10;99065.34;;;18.42;70.04
20228;BME280;12195;55.790;37.572;2023-06-24T02:18:56;99059.23;;;18.76;69.77
20228;BME280;12195;55.790;37.572;2023-06-24T02:21:32;99060.50;;;18.55;68.80
20228;BME280;12195;55.790;37.572;2023-06-24T02:24:22;99070.25;;;18.81;69.25
20228;BME280;12195;55.790;37.572;2023-06-24T02:27:08;99066.31;;;18.85;69.04
20228;BME280;12195;55.790;37.572;2023-06-24T02:29:44;99064.77;;;18.38;69.23
20228;BME280;12195;55.790;37.572;2023-06-24T02:32:31;99067.30;;;18.84;69.40
20228;BME280;12195;55.790;37.572;2023-06-24T02:35:06;99063.39;;;18.61;68.79
20228;BME280;12195;55.790;37.572;2023-06-24T02:37:52;99078.78;;;19.02;67.98
20228;BME280;12195;55.790;37.572;2023-06-24T02:40:26;99077.07;;;18.66;68.01
20228;BME280;12195;55.790;37.572;2023-06-24T02:43:10;99073.00;;;18.89;68.59
20228;BME280;12195;55.790;37.572;2023-06-24T02:45:49;99087.70;;;18.66;67.59
20228;BME280;12195;55.790;37.572;2023-06-24T02:48:40;99076.80;;;18.87;68.47
20228;BME280;12195;55.790;37.572;2023-06-24T02:51:16;99081.91;;;18.53;68.06
20228;BME280;12195;55.790;37.572;2023-06-24T02:54:03;99078.53;;;18.78;68.11
20228;BME280;12195;55.790;37.572;2023-06-24T02:56:56;99080.15;;;18.44;68.26
20228;BME280;12195;55.790;37.572;2023-06-24T02:59:46;99088.94;;;18.72;67.86
20228;BME280;12195;55.790;37.572;2023-06-24T03:02:23;99089.16;;;18.34;68.64
20228;BME280;12195;55.790;37.572;2023-06-24T03:05:11;99092.94;;;18.58;68.48
20228;BME280;12195;55.790;37.572;2023-06-24T03:07:47;99078.53;;;18.24;69.18
20228;BME280;12195;55.790;37.572;2023-06-24T03:10:31;99087.52;;;18.50;68.66
20228;BME280;12195;55.790;37.572;2023-06-24T03:13:07;99086.80;;;18.21;69.19
20228;BME280;12195;55.790;37.572;2023-06-24T03:15:51;99101.13;;;18.47;68.73
20228;BME280;12195;55.790;37.572;2023-06-24T03:18:38;99093.45;;;18.44;68.61
20228;BME280;12195;55.790;37.572;2023-06-24T03:21:15;99093.39;;;18.17;68.71
20228;BME280;12195;55.790;37.572;2023-06-24T03:24:04;99090.41;;;18.39;68.42
20228;BME280;12195;55.790;37.572;2023-06-24T03:26:56;99090.83;;;18.35;68.70
20228;BME280;12195;55.790;37.572;2023-06-24T03:29:31;99086.02;;;18.11;69.57
20228;BME280;12195;55.790;37.572;2023-06-24T03:32:15;99086.46;;;18.43;69.38
20228;BME280;12195;55.790;37.572;2023-06-24T03:34:51;99088.28;;;18.33;68.52
20228;BME280;12195;55.790;37.572;2023-06-24T03:37:55;99083.33;;;18.75;67.30
20228;BME280;12195;55.790;37.572;2023-06-24T03:40:29;99085.86;;;18.49;66.42
20228;BME280;12195;55.790;37.572;2023-06-24T03:43:16;99096.77;;;18.73;66.75
20228;BME280;12195;55.790;37.572;2023-06-24T03:45:49;99079.02;;;18.47;66.32
20228;BME280;12195;55.790;37.572;2023-06-24T03:48:37;99094.96;;;18.74;66.45
20228;BME280;12195;55.790;37.572;2023-06-24T03:51:13;99096.25;;;18.43;66.97
20228;BME280;12195;55.790;37.572;2023-06-24T03:53:58;99093.41;;;18.71;67.16
20228;BME280;12195;55.790;37.572;2023-06-24T03:56:32;99086.99;;;18.47;66.83
20228;BME280;12195;55.790;37.572;2023-06-24T03:59:15;99088.88;;;18.81;66.45
20228;BME280;12195;55.790;37.572;2023-06-24T04:01:56;99090.42;;;18.57;66.66
20228;BME280;12195;55.790;37.572;2023-06-24T04:04:41;99119.13;;;18.98;65.38
20228;BME280;12195;55.790;37.572;2023-06-24T04:07:29;99095.19;;;18.98;65.20
20228;BME280;12195;55.790;37.572;2023-06-24T04:10:04;99110.30;;;18.26;67.14
20228;BME280;12195;55.790;37.572;2023-06-24T04:12:52;99110.16;;;18.81;65.51
20228;BME280;12195;55.790;37.572;2023-06-24T04:15:44;99107.70;;;18.70;66.09
20228;BME280;12195;55.790;37.572;2023-06-24T04:18:30;99112.20;;;18.70;66.37
20228;BME280;12195;55.790;37.572;2023-06-24T04:21:06;99103.38;;;18.42;66.42
20228;BME280;12195;55.790;37.572;2023-06-24T04:23:58;99116.91;;;18.76;66.17
20228;BME280;12195;55.790;37.572;2023-06-24T04:26:31;99108.69;;;18.42;66.47
20228;BME280;12195;55.790;37.572;2023-06-24T04:29:19;99113.48;;;18.66;66.75
20228;BME280;12195;55.790;37.572;2023-06-24T04:31:54;99121.31;;;18.40;67.17
20228;BME280;12195;55.790;37.572;2023-06-24T04:34:38;99115.97;;;18.67;67.22
20228;BME280;12195;55.790;37.572;2023-06-24T04:37:16;99117.19;;;18.55;66.41
20228;BME280;12195;55.790;37.572;2023-06-24T04:40:00;99116.86;;;18.85;66.48
20228;BME280;12195;55.790;37.572;2023-06-24T04:42:35;99116.97;;;18.66;66.43
20228;BME280;12195;55.790;37.572;2023-06-24T04:45:20;99122.50;;;19.00;66.14
20228;BME280;12195;55.790;37.572;2023-06-24T04:47:55;99123.90;;;18.77;65.62
20228;BME280;12195;55.790;37.572;2023-06-24T04:50:43;99132.15;;;19.01;66.18
20228;BME280;12195;55.790;37.572;2023-06-24T04:53:17;99129.37;;;18.75;66.02
20228;BME280;12195;55.790;37.572;2023-06-24T04:56:01;99133.75;;;19.11;66.39
20228;BME280;12195;55.790;37.572;2023-06-24T04:58:35;99129.87;;;19.06;65.19
20228;BME280;12195;55.790;37.572;2023-06-24T05:01:23;99138.58;;;19.43;65.05
20228;BME280;12195;55.790;37.572;2023-06-24T05:03:58;99127.77;;;19.27;64.15
20228;BME280;12195;55.790;37.572;2023-06-24T05:06:52;99135.75;;;19.62;63.66
20228;BME280;12195;55.790;37.572;2023-06-24T05:09:30;99122.70;;;19.33;63.85
20228;BME280;12195;55.790;37.572;2023-06-24T05:12:16;99133.16;;;19.70;64.03
20228;BME280;12195;55.790;37.572;2023-06-24T05:14:51;99129.42;;;19.10;65.17
20228;BME280;12195;55.790;37.572;2023-06-24T05:17:41;99129.84;;;19.76;64.32
20228;BME280;12195;55.790;37.572;2023-06-24T05:20:18;99127.76;;;19.62;63.08
20228;BME280;12195;55.790;37.572;2023-06-24T05:23:02;99135.35;;;20.00;63.22
20228;BME280;12195;55.790;37.572;2023-06-24T05:25:36;99127.88;;;19.78;62.85
20228;BME280;12195;55.790;37.572;2023-06-24T05:28:20;99139.16;;;20.15;62.70
20228;BME280;12195;55.790;37.572;2023-06-24T05:30:55;99135.18;;;19.76;62.64
20228;BME280;12195;55.790;37.572;2023-06-24T05:33:41;99139.17;;;19.97;62.72
20228;BME280;12195;55.790;37.572;2023-06-24T05:36:25;99140.91;;;19.81;63.02
20228;BME280;12195;55.790;37.572;2023-06-24T05:39:12;99140.78;;;19.65;63.95
20228;BME280;12195;55.790;37.572;2023-06-24T05:41:47;99129.36;;;19.20;64.82
20228;BME280;12195;55.790;37.572;2023-06-24T05:44:35;99142.61;;;19.47;64.35
20228;BME280;12195;55.790;37.572;2023-06-24T05:47:10;99145.69;;;19.07;65.76
20228;BME280;12195;55.790;37.572;2023-06-24T05:49:56;99138.05;;;19.39;64.95
20228;BME280;12195;55.790;37.572;2023-06-24T05:52:39;99145.38;;;19.37;65.92
20228;BME280;12195;55.790;37.572;2023-06-24T05:55:15;99139.86;;;19.21;65.01
20228;BME280;12195;55.790;37.572;2023-06-24T05:58:01;99151.14;;;19.50;65.12
20228;BME280;12195;55.790;37.572;2023-06-24T06:00:36;99143.64;;;19.01;66.43
20228;BME280;12195;55.790;37.572;2023-06-24T06:03:24;99151.73;;;19.62;66.03
20228;BME280;12195;55.790;37.572;2023-06-24T06:05:57;99149.06;;;19.62;64.51
20228;BME280;12195;55.790;37.572;2023-06-24T06:08:42;99155.07;;;20.07;63.41
20228;BME280;12195;55.790;37.572;2023-06-24T06:11:15;99152.86;;;19.77;63.36
20228;BME280;12195;55.790;37.572;2023-06-24T06:13:58;99167.55;;;20.06;63.67
20228;BME280;12195;55.790;37.572;2023-06-24T06:16:38;99161.38;;;19.80;63.34
20228;BME280;12195;55.790;37.572;2023-06-24T06:19:23;99165.46;;;20.10;62.97
20228;BME280;12195;55.790;37.572;2023-06-24T06:21:56;99162.97;;;19.73;63.25
20228;BME280;12195;55.790;37.572;2023-06-24T06:24:41;99178.16;;;19.98;63.67
20228;BME280;12195;55.790;37.572;2023-06-24T06:27:15;99170.08;;;19.65;63.26
20228;BME280;12195;55.790;37.572;2023-06-24T06:29:59;99178.09;;;19.90;62.87
20228;BME280;12195;55.790;37.572;2023-06-24T06:32:33;99180.30;;;19.52;63.35
20228;BME280;12195;55.790;37.572;2023-06-24T06:35:19;99178.36;;;19.79;63.15
20228;BME280;12195;55.790;37.572;2023-06-24T06:38:05;99178.00;;;19.39;65.72
20228;BME280;12195;55.790;37.572;2023-06-24T06:40:41;99176.63;;;19.35;64.42
20228;BME280;12195;55.790;37.572;2023-06-24T06:43:28;99183.14;;;19.76;63.27
20228;BME280;12195;55.790;37.572;2023-06-24T06:46:12;99172.27;;;19.69;63.77
20228;BME280;12195;55.790;37.572;2023-06-24T06:48:56;99176.63;;;19.70;63.65
20228;BME280;12195;55.790;37.572;2023-06-24T06:51:32;99171.08;;;19.46;63.48
20228;BME280;12195;55.790;37.572;2023-06-24T06:54:17;99189.77;;;19.72;62.78
20228;BME280;12195;55.790;37.572;2023-06-24T06:56:50;99170.50;;;18.81;66.04
20228;BME280;12195;55.790;37.572;2023-06-24T06:59:37;99183.47;;;19.38;65.31
20228;BME280;12195;55.790;37.572;2023-06-24T07:02:10;99177.13;;;19.21;64.78
20228;BME280;12195;55.790;37.572;2023-06-24T07:04:57;99182.11;;;19.69;63.46
20228;BME280;12195;55.790;37.572;2023-06-24T07:07:46;99191.13;;;19.76;62.92
20228;BME280;12195;55.790;37.572;2023-06-24T07:10:22;99185.14;;;19.39;63.83
20228;BME280;12195;55.790;37.572;2023-06-24T07:13:09;99193.43;;;19.71;63.46
20228;BME280;12195;55.790;37.572;2023-06-24T07:15:44;99176.41;;;19.46;63.53
20228;BME280;12195;55.790;37.572;2023-06-24T07:18:32;99184.29;;;19.73;63.44
20228;BME280;12195;55.790;37.572;2023-06-24T07:21:16;99192.50;;;19.80;63.21
20228;BME280;12195;55.790;37.572;2023-06-24T07:24:01;99194.65;;;19.76;64.07
20228;BME280;12195;55.790;37.572;2023-06-24T07:26:35;99184.77;;;19.51;63.58
20228;BME280;12195;55.790;37.572;2023-06-24T07:29:19;99192.72;;;19.86;63.60
20228;BME280;12195;55.790;37.572;2023-06-24T07:32:03;99206.29;;;19.93;63.54
20228;BME280;12195;55.790;37.572;2023-06-24T07:34:36;99191.62;;;19.71;63.21
20228;BME280;12195;55.790;37.572;2023-06-24T07:37:19;99203.84;;;19.99;63.02
20228;BME280;12195;55.790;37.572;2023-06-24T07:39:54;99196.17;;;19.61;63.23
20228;BME280;12195;55.790;37.572;2023-06-24T07:42:39;99202.71;;;19.84;63.28
20228;BME280;12195;55.790;37.572;2023-06-24T07:45:21;99207.90;;;19.68;64.01
20228;BME280;12195;55.790;37.572;2023-06-24T07:48:07;99201.57;;;19.69;64.02
20228;BME280;12195;55.790;37.572;2023-06-24T07:50:53;99210.95;;;19.38;66.21
20228;BME280;12195;55.790;37.572;2023-06-24T07:53:38;99206.23;;;19.67;64.40
20228;BME280;12195;55.790;37.572;2023-06-24T07:56:12;99209.52;;;19.44;64.46
20228;BME280;12195;55.790;37.572;2023-06-24T07:58:57;99214.73;;;19.88;63.49
20228;BME280;12195;55.790;37.572;2023-06-24T08:01:29;99215.14;;;19.58;64.09
20228;BME280;12195;55.790;37.572;2023-06-24T08:04:15;99222.58;;;19.90;64.02
20228;BME280;12195;55.790;37.572;2023-06-24T08:06:48;99229.73;;;19.72;64.01
20228;BME280;12195;55.790;37.572;2023-06-24T08:09:31;99227.34;;;20.04;63.68
20228;BME280;12195;55.790;37.572;2023-06-24T08:12:23;99221.81;;;20.15;63.23
20228;BME280;12195;55.790;37.572;2023-06-24T08:14:56;99217.84;;;19.84;63.46
20228;BME280;12195;55.790;37.572;2023-06-24T08:17:31;99235.91;;;19.90;62.96
20228;BME280;12195;55.790;37.572;2023-06-24T08:20:16;99238.41;;;20.09;62.99
20228;BME280;12195;55.790;37.572;2023-06-24T08:22:49;99245.67;;;19.64;64.18
20228;BME280;12195;55.790;37.572;2023-06-24T08:25:34;99232.32;;;19.81;63.92
20228;BME280;12195;55.790;37.572;2023-06-24T08:28:09;99238.10;;;19.42;64.82
20228;BME280;12195;55.790;37.572;2023-06-24T08:30:51;99251.81;;;19.64;64.63
20228;BME280;12195;55.790;37.572;2023-06-24T08:33:25;99246.00;;;19.34;65.92
20228;BME280;12195;55.790;37.572;2023-06-24T08:36:08;99247.34;;;19.82;65.25
20228;BME280;12195;55.790;37.572;2023-06-24T08:38:41;99248.68;;;19.86;64.37
20228;BME280;12195;55.790;37.572;2023-06-24T08:41:15;99250.52;;;20.03;63.70
20228;BME280;12195;55.790;37.572;2023-06-24T08:44:00;99259.89;;;20.50;62.93
20228;BME280;12195;55.790;37.572;2023-06-24T08:46:34;99253.44;;;20.35;62.75
20228;BME280;12195;55.790;37.572;2023-06-24T08:52:14;99261.25;;;20.54;61.27
20228;BME280;12195;55.790;37.572;2023-06-24T08:55:01;99265.69;;;20.72;62.04
20228;BME280;12195;55.790;37.572;2023-06-24T08:57:35;99272.38;;;20.24;62.53
20228;BME280;12195;55.790;37.572;2023-06-24T09:00:09;99265.52;;;20.04;63.32
20228;BME280;12195;55.790;37.572;2023-06-24T09:02:43;99267.89;;;19.90;63.69
20228;BME280;12195;55.790;37.572;2023-06-24T09:05:29;99271.10;;;20.11;63.99
20228;BME280;12195;55.790;37.572;2023-06-24T09:08:03;99272.30;;;19.81;64.65
20228;BME280;12195;55.790;37.572;2023-06-24T09:10:53;99276.03;;;20.06;64.69
20228;BME280;12195;55.790;37.572;2023-06-24T09:13:35;99265.59;;;19.77;64.33
20228;BME280;12195;55.790;37.572;2023-06-24T09:16:19;99288.22;;;20.08;63.90
20228;BME280;12195;55.790;37.572;2023-06-24T09:18:53;99289.82;;;19.66;64.88
20228;BME280;12195;55.790;37.572;2023-06-24T09:21:36;99291.03;;;19.89;65.39
20228;BME280;12195;55.790;37.572;2023-06-24T09:24:20;99303.06;;;19.93;64.70
20228;BME280;12195;55.790;37.572;2023-06-24T09:27:04;99299.40;;;19.94;65.30
20228;BME280;12195;55.790;37.572;2023-06-24T09:29:38;99292.30;;;19.68;65.18
20228;BME280;12195;55.790;37.572;2023-06-24T09:32:11;99299.01;;;19.72;64.94
20228;BME280;12195;55.790;37.572;2023-06-24T09:34:56;99312.50;;;20.05;64.64
20228;BME280;12195;55.790;37.572;2023-06-24T09:37:32;99318.59;;;19.80;64.31
20228;BME280;12195;55.790;37.572;2023-06-24T09:40:17;99314.13;;;20.16;63.59
20228;BME280;12195;55.790;37.572;2023-06-24T09:42:54;99323.40;;;19.77;63.99
20228;BME280;12195;55.790;37.572;2023-06-24T09:45:39;99325.16;;;20.03;64.28
20228;BME280;12195;55.790;37.572;2023-06-24T09:48:12;99328.73;;;19.77;64.09
20228;BME280;12195;55.790;37.572;2023-06-24T09:51:02;99336.64;;;20.04;64.21
20228;BME280;12195;55.790;37.572;2023-06-24T09:53:48;99335.09;;;20.11;64.10
20228;BME280;12195;55.790;37.572;2023-06-24T09:56:36;99340.05;;;20.23;63.60
20228;BME280;12195;55.790;37.572;2023-06-24T09:59:12;99339.00;;;19.89;63.64
20228;BME280;12195;55.790;37.572;2023-06-24T10:01:57;99352.02;;;20.19;63.57
20228;BME280;12195;55.790;37.572;2023-06-24T10:04:31;99354.28;;;19.70;64.49
20228;BME280;12195;55.790;37.572;2023-06-24T10:07:10;99354.75;;;20.27;62.78
20228;BME280;12195;55.790;37.572;2023-06-24T10:10:00;99354.72;;;20.45;63.07
20228;BME280;12195;55.790;37.572;2023-06-24T10:12:46;99352.05;;;20.45;63.45
20228;BME280;12195;55.790;37.572;2023-06-24T10:15:22;99343.61;;;20.14;63.69
20228;BME280;12195;55.790;37.572;2023-06-24T10:17:55;99353.75;;;20.11;63.57
20228;BME280;12195;55.790;37.572;2023-06-24T10:20:37;99362.49;;;20.38;62.48
20228;BME280;12195;55.790;37.572;2023-06-24T10:23:23;99362.64;;;20.37;63.24
20228;BME280;12195;55.790;37.572;2023-06-24T10:26:01;99355.63;;;20.01;63.84
20228;BME280;12195;55.790;37.572;2023-06-24T10:34:42;99367.53;;;20.41;63.03
20228;BME280;12195;55.790;37.572;2023-06-24T10:37:22;99366.64;;;20.15;63.44
20228;BME280;12195;55.790;37.572;2023-06-24T10:40:18;99371.94;;;20.50;62.56
20228;BME280;12195;55.790;37.572;2023-06-24T10:42:55;99369.75;;;20.28;62.97
20228;BME280;12195;55.790;37.572;2023-06-24T10:48:35;99372.79;;;21.53;60.25
20228;BME280;12195;55.790;37.572;2023-06-24T10:51:11;99356.98;;;21.68;58.45
20228;BME280;12195;55.790;37.572;2023-06-24T10:53:58;99364.45;;;22.06;58.53
20228;BME280;12195;55.790;37.572;2023-06-24T10:56:33;99371.08;;;21.11;60.18
20228;BME280;12195;55.790;37.572;2023-06-24T10:59:24;99377.67;;;21.66;59.56
20228;BME280;12195;55.790;37.572;2023-06-24T11:02:15;99380.94;;;21.77;59.11
20228;BME280;12195;55.790;37.572;2023-06-24T11:04:52;99374.40;;;21.72;57.73
20228;BME280;12195;55.790;37.572;2023-06-24T11:11:24;99377.15;;;21.96;56.57
20228;BME280;12195;55.790;37.572;2023-06-24T11:14:11;99388.95;;;22.51;55.56
20228;BME280;12195;55.790;37.572;2023-06-24T11:16:45;99380.67;;;22.12;55.28
20228;BME280;12195;55.790;37.572;2023-06-24T11:19:30;99383.89;;;23.04;54.42
20228;BME280;12195;55.790;37.572;2023-06-24T11:22:04;99376.16;;;23.17;53.09
20228;BME280;12195;55.790;37.572;2023-06-24T11:24:55;99376.61;;;23.83;52.90
20228;BME280;12195;55.790;37.572;2023-06-24T11:27:31;99375.69;;;23.68;50.38
20228;BME280;12195;55.790;37.572;2023-06-24T11:30:16;99388.09;;;24.07;50.68
20228;BME280;12195;55.790;37.572;2023-06-24T11:32:49;99389.02;;;24.14;49.18
20228;BME280;12195;55.790;37.572;2023-06-24T11:35:34;99392.08;;;25.02;48.85
20228;BME280;12195;55.790;37.572;2023-06-24T11:38:22;99393.89;;;25.53;47.38
20228;BME280;12195;55.790;37.572;2023-06-24T11:40:58;99392.31;;;25.29;46.36
20228;BME280;12195;55.790;37.572;2023-06-24T11:43:31;99398.23;;;25.54;45.75
20228;BME280;12195;55.790;37.572;2023-06-24T11:46:24;99402.69;;;25.76;46.11
20228;BME280;12195;55.790;37.572;2023-06-24T11:49:04;99402.98;;;24.63;47.15
20228;BME280;12195;55.790;37.572;2023-06-24T11:51:50;99406.79;;;24.46;48.74
20228;BME280;12195;55.790;37.572;2023-06-24T11:54:40;99414.02;;;24.15;49.53
20228;BME280;12195;55.790;37.572;2023-06-24T11:57:14;99396.09;;;23.14;51.65
20228;BME280;12195;55.790;37.572;2023-06-24T12:00:00;99432.05;;;23.98;49.97
20228;BME280;12195;55.790;37.572;2023-06-24T12:02:50;99420.84;;;23.95;50.69
20228;BME280;12195;55.790;37.572;2023-06-24T12:05:36;99421.78;;;24.10;49.50
20228;BME280;12195;55.790;37.572;2023-06-24T12:08:19;99416.06;;;24.35;48.21
20228;BME280;12195;55.790;37.572;2023-06-24T12:10:54;99415.34;;;24.19;47.59
20228;BME280;12195;55.790;37.572;2023-06-24T12:13:40;99420.97;;;24.54;47.62
20228;BME280;12195;55.790;37.572;2023-06-24T12:16:26;99423.34;;;24.27;48.30
20228;BME280;12195;55.790;37.572;2023-06-24T12:19:00;99420.56;;;22.87;50.76
20228;BME280;12195;55.790;37.572;2023-06-24T12:22:03;99423.02;;;23.45;50.49
20228;BME280;12195;55.790;37.572;2023-06-24T12:24:36;99421.41;;;22.96;51.38
20228;BME280;12195;55.790;37.572;2023-06-24T12:27:21;99425.88;;;23.19;51.48
20228;BME280;12195;55.790;37.572;2023-06-24T12:29:55;99431.27;;;22.79;51.64
20228;BME280;12195;55.790;37.572;2023-06-24T12:32:38;99427.41;;;22.98;52.25
20228;BME280;12195;55.790;37.572;2023-06-24T12:35:12;99432.39;;;22.45;52.36
20228;BME280;12195;55.790;37.572;2023-06-24T12:37:56;99446.48;;;22.47;53.42
20228;BME280;12195;55.790;37.572;2023-06-24T12:40:29;99440.77;;;21.84;54.35
20228;BME280;12195;55.790;37.572;2023-06-24T12:43:13;99443.00;;;21.97;54.84
20228;BME280;12195;55.790;37.572;2023-06-24T12:45:48;99450.75;;;21.49;56.07
20228;BME280;12195;55.790;37.572;2023-06-24T12:48:33;99451.92;;;21.72;55.83
20228;BME280;12195;55.790;37.572;2023-06-24T12:51:06;99439.70;;;21.18;57.17
20228;BME280;12195;55.790;37.572;2023-06-24T12:53:49;99462.39;;;21.40;57.03
20228;BME280;12195;55.790;37.572;2023-06-24T12:56:22;99440.08;;;20.98;58.18
20228;BME280;12195;55.790;37.572;2023-06-24T12:59:05;99455.28;;;21.23;57.55
20228;BME280;12195;55.790;37.572;2023-06-24T13:01:38;99442.66;;;20.90;58.31
20228;BME280;12195;55.790;37.572;2023-06-24T13:04:23;99446.05;;;21.17;58.21
20228;BME280;12195;55.790;37.572;2023-06-24T13:06:56;99442.75;;;20.98;58.17
20228;BME280;12195;55.790;37.572;2023-06-24T13:09:39;99453.07;;;21.44;57.54
20228;BME280;12195;55.790;37.572;2023-06-24T13:12:13;99454.44;;;21.73;55.39
20228;BME280;12195;55.790;37.572;2023-06-24T13:14:58;99459.05;;;23.18;52.68
20228;BME280;12195;55.790;37.572;2023-06-24T13:17:33;99439.52;;;25.09;46.72
20228;BME280;12195;55.790;37.572;2023-06-24T13:20:07;99445.33;;;27.21;41.66
20228;BME280;12195;55.790;37.572;2023-06-24T13:22:51;99439.25;;;29.66;39.39
20228;BME280;12195;55.790;37.572;2023-06-24T13:25:24;99431.64;;;32.34;31.40
20228;BME280;12195;55.790;37.572;2023-06-24T13:28:07;99447.03;;;35.43;29.60
20228;BME280;12195;55.790;37.572;2023-06-24T13:30:51;99436.37;;;36.92;27.73
20228;BME280;12195;55.790;37.572;2023-06-24T13:33:26;99440.38;;;35.93;25.90
20228;BME280;12195;55.790;37.572;2023-06-24T13:35:58;99442.67;;;34.53;26.94
20228;BME280;12195;55.790;37.572;2023-06-24T13:38:41;99451.82;;;33.73;30.00
20228;BME280;12195;55.790;37.572;2023-06-24T13:41:27;99460.27;;;31.58;32.36
20228;BME280;12195;55.790;37.572;2023-06-24T13:44:01;99462.34;;;27.21;38.67
20228;BME280;12195;55.790;37.572;2023-06-24T13:46:44;99465.13;;;27.62;38.81
20228;BME280;12195;55.790;37.572;2023-06-24T13:49:17;99470.55;;;26.36;40.77
20228;BME280;12195;55.790;37.572;2023-06-24T13:52:01;99477.17;;;26.54;40.72
20228;BME280;12195;55.790;37.572;2023-06-24T13:54:46;99470.65;;;26.28;42.00
20228;BME280;12195;55.790;37.572;2023-06-24T13:57:19;99464.87;;;25.95;42.22
20228;BME280;12195;55.790;37.572;2023-06-24T14:00:02;99471.26;;;26.59;41.63
20228;BME280;12195;55.790;37.572;2023-06-24T14:02:47;99463.68;;;26.69;41.23
20228;BME280;12195;55.790;37.572;2023-06-24T14:05:20;99467.83;;;26.00;42.11
20228;BME280;12195;55.790;37.572;2023-06-24T14:08:04;99472.27;;;26.22;42.05
20228;BME280;12195;55.790;37.572;2023-06-24T14:10:49;99487.48;;;25.86;42.97
20228;BME280;12195;55.790;37.572;2023-06-24T14:13:32;99484.48;;;25.52;43.60
20228;BME280;12195;55.790;37.572;2023-06-24T14:16:06;99472.70;;;24.79;45.07
20228;BME280;12195;55.790;37.572;2023-06-24T14:18:50;99475.55;;;25.00;45.10
20228;BME280;12195;55.790;37.572;2023-06-24T14:21:23;99472.64;;;24.64;46.04
20228;BME280;12195;55.790;37.572;2023-06-24T14:24:07;99472.36;;;26.64;42.56